»·PEaware :: N218GT KSNA-KSAN

N218GT :: KSNA-KSAN

FLIGHT INFORMATION

Flight Status: Arrived
Operator: Privately registered:
United States
More flights under this callsign
Pilot: Joe C. (19058)
Aircraft: EMBRAER BANDEIRANTE
(E110)
More flights by this aircraft type
Origin: KSNA John Wayne-Orange Co
United States
Destination: KSAN San Diego Intl-Lindbergh
United States
More flights between these airports :: More routes between these airports
Route: +V25 PACIF V208 LAX118 CARDI MZB320 MZB
File this flight plan on PilotEdge
Remarks:
Altitude:
(Current/Filed)
9,000ft
Speed:
(Current/Filed)
180kts
Departed: 03-Sep-18 05:53 PM
Arrived: 03-Sep-18 06:35 PM
Distance/Time
Traveled:
66nm/0:42
Distance/Time
To Go:
Arrived

Flight Plot

Page will automatically refresh every two minutes.


Map Options




Map Legend


Flown Route
Filed Route
Departure Airport
Arrival Airport
Navaid (VOR, NDB)
Fix

Horizontal Profiles

Position Reports

Time Latitude Longitude Heading Altitude Ground
Speed
03-Sep-18 17:37 33.675845 -117.871046 220 61ft 0kts
03-Sep-18 17:38 33.675845 -117.871046 220 61ft 0kts
03-Sep-18 17:39 33.675845 -117.871046 220 61ft 0kts
03-Sep-18 17:40 33.675845 -117.871046 220 61ft 0kts
03-Sep-18 17:41 33.675845 -117.871046 220 61ft 0kts
03-Sep-18 17:42 33.675845 -117.871046 220 61ft 0kts
03-Sep-18 17:43 33.675845 -117.871046 220 61ft 0kts
03-Sep-18 17:44 33.675845 -117.871046 220 61ft 0kts
03-Sep-18 17:45 33.675845 -117.871046 220 61ft 0kts
03-Sep-18 17:46 33.675845 -117.871046 220 61ft 0kts
03-Sep-18 17:47 33.675845 -117.871046 220 61ft 0kts
03-Sep-18 17:48 33.675845 -117.871046 220 61ft 0kts
03-Sep-18 17:49 33.675845 -117.871046 220 61ft 0kts
03-Sep-18 17:50 33.675845 -117.871046 220 61ft 0kts
03-Sep-18 17:51 33.675680 -117.871023 126 60ft 0kts
03-Sep-18 17:52 33.675546 -117.870810 128 61ft 11kts
03-Sep-18 17:53 33.681247 -117.866557 112 61ft 0kts
03-Sep-18 17:54 33.681247 -117.866556 112 61ft 0kts
03-Sep-18 17:55 33.678891 -117.866809 207 61ft 60kts
03-Sep-18 17:56 33.648962 -117.881072 186 989ft 131kts
03-Sep-18 17:57 33.613528 -117.883575 186 2316ft 122kts
03-Sep-18 17:58 33.581715 -117.886103 186 3440ft 111kts
03-Sep-18 17:59 33.549692 -117.887772 160 4520ft 119kts
03-Sep-18 18:00 33.519678 -117.871257 157 5644ft 119kts
03-Sep-18 18:01 33.489983 -117.855383 156 6651ft 116kts
03-Sep-18 18:02 33.461307 -117.840253 155 7577ft 105kts
03-Sep-18 18:03 33.435107 -117.826533 154 8258ft 103kts
03-Sep-18 18:04 33.408093 -117.812348 153 8825ft 108kts
03-Sep-18 18:05 33.377647 -117.796283 154 9044ft 139kts
03-Sep-18 18:06 33.338740 -117.775775 154 9021ft 163kts
03-Sep-18 18:07 33.295978 -117.753357 152 8998ft 175kts
03-Sep-18 18:08 33.279787 -117.704357 97 9018ft 174kts
03-Sep-18 18:09 33.275741 -117.679175 97 9020ft 176kts
03-Sep-18 18:10 33.266742 -117.620876 96 9018ft 179kts
03-Sep-18 18:11 33.250479 -117.565568 128 9026ft 185kts
03-Sep-18 18:12 33.215001 -117.520315 129 9006ft 187kts
03-Sep-18 18:13 33.178138 -117.473956 130 9012ft 204kts
03-Sep-18 18:14 33.137894 -117.423675 134 8997ft 213kts
03-Sep-18 18:14 33.089279 -117.395534 153 8000ft 247kts
03-Sep-18 18:15 33.032105 -117.363802 155 7109ft 199kts
03-Sep-18 18:17 32.982896 -117.336529 157 6984ft 140kts
03-Sep-18 18:17 32.952246 -117.319547 156 7042ft 168kts
03-Sep-18 18:18 32.905714 -117.293722 156 7009ft 194kts
03-Sep-18 18:19 32.855782 -117.266079 156 7010ft 201kts
03-Sep-18 18:21 32.818285 -117.210051 100 6869ft 216kts
03-Sep-18 18:22 32.809333 -117.139179 100 4782ft 212kts
03-Sep-18 18:22 32.801957 -117.084025 101 3162ft 185kts
03-Sep-18 18:23 32.796055 -117.031052 86 2814ft 204kts
03-Sep-18 18:24 32.789148 -116.978783 100 3843ft 173kts
03-Sep-18 18:25 32.778281 -116.916306 100 3803ft 204kts
03-Sep-18 18:26 32.766565 -116.849065 100 3798ft 209kts
03-Sep-18 18:27 32.724974 -116.833264 211 3814ft 206kts
03-Sep-18 18:28 32.680937 -116.872086 247 3798ft 205kts
03-Sep-18 18:29 32.670935 -116.933238 291 3526ft 168kts
03-Sep-18 18:30 32.683038 -116.976665 287 2910ft 111kts
03-Sep-18 18:31 32.690874 -117.014178 286 2466ft 123kts
03-Sep-18 18:32 32.700261 -117.052968 286 2036ft 121kts
03-Sep-18 18:33 32.708367 -117.086196 285 1753ft 118kts
03-Sep-18 18:34 32.717539 -117.123816 285 1173ft 119kts
03-Sep-18 18:35 32.726137 -117.159296 284 554ft 119kts
03-Sep-18 18:36 32.733486 -117.188164 340 18ft 22kts
03-Sep-18 18:37 32.733920 -117.186350 106 18ft 24kts
03-Sep-18 18:38 32.732901 -117.179359 19 21ft 0kts
03-Sep-18 18:39 32.732928 -117.179248 106 21ft 0kts

Navigation Log

Ident Type
1. KSNA Airport
2. PACIF Fix
3. CARDI Fix
4. MZB Navaid
5. KSAN Airport